createdAt,value
2023-07-24T00:00:44.571Z,1.50
2023-07-24T00:03:34.647Z,1.60
2023-07-24T00:06:06.460Z,1.70
2023-07-24T00:08:37.989Z,1.50
2023-07-24T00:11:11.857Z,2.00
2023-07-24T00:13:43.438Z,1.70
2023-07-24T00:16:15.084Z,1.80
2023-07-24T00:18:46.523Z,1.70
2023-07-24T00:21:17.956Z,1.50
2023-07-24T00:23:49.505Z,1.60
2023-07-24T00:26:21.044Z,2.00
2023-07-24T00:28:52.527Z,2.00
2023-07-24T00:31:23.967Z,1.70
2023-07-24T00:33:55.511Z,1.60
2023-07-24T00:36:26.994Z,2.10
2023-07-24T00:38:58.482Z,1.80
2023-07-24T00:41:30.269Z,1.70
2023-07-24T00:44:02.053Z,1.80
2023-07-24T00:46:34.548Z,2.30
2023-07-24T00:49:07.603Z,2.10
2023-07-24T00:51:39.232Z,1.80
2023-07-24T00:54:11.009Z,1.70
2023-07-24T00:56:42.786Z,1.80
2023-07-24T00:59:14.329Z,1.80
2023-07-24T01:01:46.308Z,1.90
2023-07-24T01:04:18.785Z,1.70
2023-07-24T01:06:50.269Z,1.80
2023-07-24T01:09:21.695Z,1.80
2023-07-24T01:12:04.839Z,2.10
2023-07-24T01:14:44.639Z,1.60
2023-07-24T01:17:22.268Z,2.00
2023-07-24T01:19:57.636Z,1.70
2023-07-24T01:22:42.334Z,1.70
2023-07-24T01:25:25.654Z,1.50
2023-07-24T01:27:57.169Z,2.00
2023-07-24T01:30:28.795Z,1.60
2023-07-24T01:33:00.531Z,1.80
2023-07-24T01:35:34.029Z,2.00
2023-07-24T01:38:06.697Z,1.90
2023-07-24T01:40:38.529Z,1.50
2023-07-24T01:43:10.247Z,1.90
2023-07-24T01:45:41.891Z,1.80
2023-07-24T01:48:13.378Z,2.10
2023-07-24T01:50:45.013Z,2.00
2023-07-24T01:53:16.583Z,1.90
2023-07-24T01:55:48.210Z,1.90
2023-07-24T01:58:19.787Z,2.00
2023-07-24T02:00:52.027Z,1.70
2023-07-24T02:03:23.522Z,2.10
2023-07-24T02:05:55.213Z,1.90
2023-07-24T02:08:26.666Z,1.70
2023-07-24T02:10:58.144Z,1.80
2023-07-24T02:13:29.715Z,2.00
2023-07-24T02:16:01.269Z,2.10
2023-07-24T02:18:32.784Z,2.00
2023-07-24T02:21:04.533Z,2.30
2023-07-24T02:23:36.703Z,1.80
2023-07-24T02:26:08.252Z,2.50
2023-07-24T02:28:39.804Z,2.10
2023-07-24T02:31:11.562Z,1.70
2023-07-24T02:33:43.155Z,2.00
2023-07-24T02:36:14.799Z,2.10
2023-07-24T02:38:46.497Z,2.10
2023-07-24T02:41:18.022Z,1.90
2023-07-24T02:43:49.582Z,1.50
2023-07-24T02:46:21.217Z,2.10
2023-07-24T02:48:52.828Z,2.20
2023-07-24T02:51:24.236Z,1.90
2023-07-24T02:53:57.650Z,1.80
2023-07-24T02:56:29.540Z,2.20
2023-07-24T02:59:01.270Z,2.20
2023-07-24T03:01:34.054Z,2.20
2023-07-24T03:04:07.067Z,1.80
2023-07-24T03:06:38.508Z,1.80
2023-07-24T03:09:10.330Z,2.20
2023-07-24T03:11:41.893Z,2.30
2023-07-24T03:14:13.374Z,2.10
2023-07-24T03:16:44.917Z,1.90
2023-07-24T03:19:18.541Z,1.90
2023-07-24T03:21:49.996Z,2.40
2023-07-24T03:24:22.081Z,1.80
2023-07-24T03:26:53.543Z,1.80
2023-07-24T03:29:25.060Z,1.90
2023-07-24T03:31:56.869Z,2.00
2023-07-24T03:34:28.511Z,2.00
2023-07-24T03:37:00.013Z,2.00
2023-07-24T03:39:31.530Z,2.10
2023-07-24T03:42:04.165Z,2.40
2023-07-24T03:44:35.628Z,1.80
2023-07-24T03:47:07.560Z,1.80
2023-07-24T03:49:39.023Z,1.80
2023-07-24T03:52:10.750Z,1.90
2023-07-24T03:54:42.296Z,2.30
2023-07-24T03:57:13.705Z,2.20
2023-07-24T03:59:45.269Z,2.30
2023-07-24T04:02:17.001Z,1.90
2023-07-24T04:04:49.631Z,2.10
2023-07-24T04:07:21.079Z,1.80
2023-07-24T04:09:52.552Z,1.70
2023-07-24T04:12:23.978Z,2.00
2023-07-24T04:14:55.422Z,2.10
2023-07-24T04:17:27.299Z,2.00
2023-07-24T04:19:58.916Z,2.10
2023-07-24T04:22:30.688Z,2.20
2023-07-24T04:25:02.129Z,2.10
2023-07-24T04:27:33.617Z,2.10
2023-07-24T04:30:05.639Z,2.10
2023-07-24T04:32:37.139Z,2.10
2023-07-24T04:35:10.544Z,1.70
2023-07-24T04:37:42.164Z,2.10
2023-07-24T04:40:15.323Z,2.70
2023-07-24T04:42:46.796Z,1.80
2023-07-24T04:45:18.615Z,1.80
2023-07-24T04:47:50.187Z,2.10
2023-07-24T04:50:22.021Z,2.10
2023-07-24T04:52:53.487Z,2.10
2023-07-24T04:55:24.993Z,2.30
2023-07-24T04:57:56.496Z,2.80
2023-07-24T05:00:28.355Z,2.90
2023-07-24T05:02:59.940Z,2.10
2023-07-24T05:05:32.651Z,2.20
2023-07-24T05:08:04.334Z,2.30
2023-07-24T05:10:39.742Z,3.10
2023-07-24T05:13:13.534Z,2.60
2023-07-24T05:15:45.350Z,2.20
2023-07-24T05:18:16.788Z,2.50
2023-07-24T05:20:52.409Z,2.50
2023-07-24T05:23:24.118Z,2.30
2023-07-24T05:26:01.294Z,2.20
2023-07-24T05:28:34.394Z,2.10
2023-07-24T05:31:07.225Z,2.80
2023-07-24T05:33:44.911Z,2.30
2023-07-24T05:36:16.360Z,3.10
2023-07-24T05:38:47.849Z,2.50
2023-07-24T05:41:19.336Z,2.50
2023-07-24T05:43:51.718Z,2.30
2023-07-24T05:46:23.632Z,3.10
2023-07-24T05:48:55.158Z,2.70
2023-07-24T05:51:26.691Z,4.10
2023-07-24T05:53:58.192Z,2.80
2023-07-24T05:56:29.816Z,3.00
2023-07-24T05:59:02.832Z,3.40
2023-07-24T06:01:34.330Z,2.40
2023-07-24T06:04:06.931Z,3.10
2023-07-24T06:06:38.601Z,2.60
2023-07-24T06:09:10.125Z,2.90
2023-07-24T06:11:41.796Z,5.70
2023-07-24T06:14:13.362Z,2.80
2023-07-24T06:16:44.949Z,3.80
2023-07-24T06:19:17.321Z,2.70
2023-07-24T06:21:48.923Z,5.00
2023-07-24T06:24:20.403Z,5.70
2023-07-24T06:26:52.367Z,2.70
2023-07-24T06:29:24.608Z,2.70
2023-07-24T06:31:56.097Z,3.00
2023-07-24T06:34:27.563Z,3.00
2023-07-24T06:37:06.315Z,5.10
2023-07-24T06:39:48.488Z,2.60
2023-07-24T06:42:20.212Z,3.50
2023-07-24T06:44:51.703Z,4.00
2023-07-24T06:47:23.493Z,2.90
2023-07-24T06:49:54.994Z,3.30
2023-07-24T06:52:26.487Z,4.30
2023-07-24T06:54:59.179Z,3.50
2023-07-24T06:57:30.676Z,4.60
2023-07-24T07:00:02.150Z,2.80
2023-07-24T07:02:33.613Z,2.80
2023-07-24T07:05:05.564Z,2.50
2023-07-24T07:07:37.137Z,3.40
2023-07-24T07:10:10.585Z,3.10
2023-07-24T07:12:42.320Z,2.70
2023-07-24T07:15:14.324Z,3.70
2023-07-24T07:17:45.891Z,3.00
2023-07-24T07:20:17.765Z,2.80
2023-07-24T07:22:49.141Z,3.40
2023-07-24T07:25:20.655Z,3.70
2023-07-24T07:27:52.180Z,2.70
2023-07-24T07:30:23.643Z,3.60
2023-07-24T07:32:55.244Z,3.30
2023-07-24T07:35:26.892Z,3.40
2023-07-24T07:37:58.596Z,4.50
2023-07-24T07:40:30.505Z,3.50
2023-07-24T07:43:02.013Z,3.40
2023-07-24T07:45:33.512Z,3.50
2023-07-24T07:48:05.218Z,3.60
2023-07-24T07:50:36.740Z,3.70
2023-07-24T07:53:08.229Z,3.40
2023-07-24T07:55:39.655Z,3.50
2023-07-24T07:58:11.174Z,3.20
2023-07-24T08:00:42.612Z,3.70
2023-07-24T08:03:14.204Z,3.60
2023-07-24T08:05:46.080Z,3.50
2023-07-24T08:08:17.465Z,3.50
2023-07-24T08:10:48.921Z,3.20
2023-07-24T08:13:20.413Z,3.90
2023-07-24T08:15:52.841Z,3.40
2023-07-24T08:18:24.292Z,3.80
2023-07-24T08:20:55.842Z,3.10
2023-07-24T08:23:27.254Z,4.60
2023-07-24T08:25:58.670Z,3.90
2023-07-24T08:28:30.334Z,3.60
2023-07-24T08:31:06.598Z,3.80
2023-07-24T08:33:39.191Z,4.00
2023-07-24T08:36:12.615Z,3.80
2023-07-24T08:38:45.192Z,4.10
2023-07-24T08:41:17.879Z,3.30
2023-07-24T08:43:50.614Z,3.80
2023-07-24T08:46:22.882Z,3.40
2023-07-24T08:48:56.541Z,4.90
2023-07-24T08:51:29.826Z,3.70
2023-07-24T08:54:03.694Z,3.80
2023-07-24T08:56:35.557Z,4.00
2023-07-24T08:59:07.129Z,4.10
2023-07-24T09:01:38.598Z,4.00
2023-07-24T09:04:10.078Z,4.10
2023-07-24T09:06:42.575Z,3.80
2023-07-24T09:09:18.155Z,3.30
2023-07-24T09:11:54.991Z,4.00
2023-07-24T09:14:31.193Z,4.20
2023-07-24T09:17:09.118Z,3.80
2023-07-24T09:19:41.500Z,4.50
2023-07-24T09:22:15.737Z,3.80
2023-07-24T09:24:57.780Z,4.00
2023-07-24T09:27:32.505Z,4.30
2023-07-24T09:30:13.633Z,4.40
2023-07-24T09:32:45.205Z,3.50
2023-07-24T09:35:28.246Z,4.00
2023-07-24T09:38:08.695Z,3.80
2023-07-24T09:40:48.200Z,4.00
2023-07-24T09:43:36.927Z,3.60
2023-07-24T09:46:11.663Z,3.90
2023-07-24T09:49:07.800Z,3.50
2023-07-24T09:51:35.876Z,4.00
2023-07-24T09:54:16.748Z,3.80
2023-07-24T09:56:53.676Z,3.80
2023-07-24T09:59:31.531Z,4.10
2023-07-24T10:02:03.559Z,3.60
2023-07-24T10:04:36.227Z,4.00
2023-07-24T10:07:09.144Z,4.40
2023-07-24T10:09:41.373Z,4.10
2023-07-24T10:12:13.437Z,4.20
2023-07-24T10:14:45.478Z,5.00
2023-07-24T10:17:26.423Z,6.20
2023-07-24T10:20:05.664Z,5.60
2023-07-24T10:22:40.887Z,3.70
2023-07-24T10:25:13.432Z,3.80
2023-07-24T10:27:47.676Z,4.00
2023-07-24T10:30:35.182Z,3.60
2023-07-24T10:33:14.854Z,4.40
2023-07-24T10:35:48.236Z,4.70
2023-07-24T10:38:20.346Z,4.40
2023-07-24T10:41:03.382Z,4.30
2023-07-24T10:43:48.248Z,5.20
2023-07-24T10:46:22.316Z,5.70
2023-07-24T10:48:54.908Z,4.30
2023-07-24T10:51:26.415Z,4.60
2023-07-24T10:53:57.906Z,4.00
2023-07-24T10:56:30.111Z,4.20
2023-07-24T10:59:06.346Z,3.20
2023-07-24T11:01:38.189Z,3.30
2023-07-24T11:04:13.626Z,3.60
2023-07-24T11:06:45.267Z,3.80
2023-07-24T11:09:16.719Z,4.00
2023-07-24T11:11:48.171Z,4.10
2023-07-24T11:14:19.605Z,4.30
2023-07-24T11:16:53.255Z,4.10
2023-07-24T11:19:27.653Z,3.80
2023-07-24T11:21:59.383Z,4.40
2023-07-24T11:24:31.012Z,4.10
2023-07-24T11:27:02.621Z,5.00
2023-07-24T11:29:35.166Z,4.20
2023-07-24T11:32:08.614Z,4.60
2023-07-24T11:34:40.133Z,4.90
2023-07-24T11:37:11.667Z,3.50
2023-07-24T11:39:43.224Z,4.50
2023-07-24T11:42:14.774Z,4.70
2023-07-24T11:44:46.275Z,4.50
2023-07-24T11:47:17.905Z,4.10
2023-07-24T11:50:00.065Z,4.70
2023-07-24T11:52:41.959Z,5.20
2023-07-24T11:55:16.247Z,4.30
2023-07-24T11:57:58.991Z,5.50
2023-07-24T12:00:35.065Z,4.90
2023-07-24T12:03:09.521Z,5.00
2023-07-24T12:05:44.178Z,5.60
2023-07-24T12:08:18.484Z,4.30
2023-07-24T12:10:50.498Z,5.80
2023-07-24T12:13:22.247Z,5.30
2023-07-24T12:15:53.920Z,5.00
2023-07-24T12:18:27.778Z,4.60
2023-07-24T12:20:59.470Z,5.40
2023-07-24T12:23:30.992Z,4.70
2023-07-24T12:26:02.448Z,4.50
2023-07-24T12:28:33.953Z,5.40
2023-07-24T12:31:05.634Z,5.00
2023-07-24T12:33:37.393Z,5.50
2023-07-24T12:36:09.253Z,4.90
2023-07-24T12:38:40.835Z,4.80
2023-07-24T12:41:12.352Z,5.80
2023-07-24T12:43:43.822Z,5.50
2023-07-24T12:46:15.779Z,5.80
2023-07-24T12:48:47.565Z,4.40
2023-07-24T12:51:19.136Z,4.80
2023-07-24T12:53:52.594Z,5.10
2023-07-24T12:56:32.828Z,5.00
2023-07-24T12:59:04.945Z,6.20
2023-07-24T13:01:36.370Z,5.30
2023-07-24T13:04:09.681Z,5.20
2023-07-24T13:06:41.551Z,5.40
2023-07-24T13:09:13.347Z,4.40
2023-07-24T13:11:44.888Z,4.90
2023-07-24T13:14:16.375Z,5.60
2023-07-24T13:16:47.968Z,4.60
2023-07-24T13:19:21.570Z,4.50
2023-07-24T13:21:53.289Z,4.80
2023-07-24T13:24:24.851Z,4.50
2023-07-24T13:26:56.511Z,4.30
2023-07-24T13:29:28.024Z,4.00
2023-07-24T13:31:59.609Z,4.90
2023-07-24T13:34:31.056Z,4.30
2023-07-24T13:37:02.641Z,4.60
2023-07-24T13:39:35.609Z,4.30
2023-07-24T13:42:07.899Z,4.80
2023-07-24T13:44:39.444Z,4.40
2023-07-24T13:47:10.928Z,4.70
2023-07-24T13:49:51.929Z,4.20
2023-07-24T13:52:23.913Z,4.10
2023-07-24T13:54:55.419Z,4.90
2023-07-24T13:57:26.911Z,5.40
2023-07-24T13:59:58.356Z,5.50
2023-07-24T14:02:29.843Z,5.00
2023-07-24T14:05:01.405Z,5.00
2023-07-24T14:07:33.067Z,4.50
2023-07-24T14:10:04.582Z,4.70
2023-07-24T14:12:36.046Z,5.20
2023-07-24T14:15:09.856Z,5.00
2023-07-24T14:17:41.959Z,5.00
2023-07-24T14:20:14.718Z,6.40
2023-07-24T14:22:46.214Z,5.10
2023-07-24T14:25:18.167Z,4.80
2023-07-24T14:27:49.654Z,4.70
2023-07-24T14:30:22.207Z,4.60
2023-07-24T14:32:53.732Z,5.20
2023-07-24T14:35:25.750Z,5.00
2023-07-24T14:37:57.268Z,4.50
2023-07-24T14:40:28.720Z,4.40
2023-07-24T14:43:00.184Z,5.20
2023-07-24T14:45:31.782Z,4.50
2023-07-24T14:48:03.215Z,4.10
2023-07-24T14:50:34.798Z,4.10
2023-07-24T14:53:06.254Z,4.30
2023-07-24T14:55:37.763Z,4.70
2023-07-24T14:58:09.273Z,4.10
2023-07-24T15:00:40.821Z,8.00
2023-07-24T15:03:12.462Z,3.70
2023-07-24T15:05:43.986Z,2.60
2023-07-24T15:08:15.422Z,2.50
2023-07-24T15:10:47.051Z,2.90
2023-07-24T15:13:18.685Z,3.30
2023-07-24T15:15:50.383Z,3.00
2023-07-24T15:18:22.103Z,2.80
2023-07-24T15:20:54.743Z,2.80
2023-07-24T15:23:27.123Z,2.80
2023-07-24T15:25:58.710Z,2.90
2023-07-24T15:28:30.356Z,2.40
2023-07-24T15:31:02.067Z,2.60
2023-07-24T15:33:33.601Z,2.90
2023-07-24T15:36:05.614Z,3.10
2023-07-24T15:38:37.074Z,2.20
2023-07-24T15:41:08.638Z,2.80
2023-07-24T15:43:40.123Z,3.70
2023-07-24T15:46:11.749Z,2.70
2023-07-24T15:48:43.237Z,3.00
2023-07-24T15:51:14.914Z,2.40
2023-07-24T15:53:46.957Z,2.80
2023-07-24T15:56:18.739Z,2.60
2023-07-24T15:58:51.441Z,2.70
2023-07-24T16:01:23.314Z,3.10
2023-07-24T16:03:55.325Z,2.50
2023-07-24T16:06:26.835Z,2.80
2023-07-24T16:08:58.546Z,4.00
2023-07-24T16:11:30.481Z,5.50
2023-07-24T16:14:02.198Z,3.90
2023-07-24T16:16:33.752Z,4.90
2023-07-24T16:19:21.108Z,5.00
2023-07-24T16:21:53.423Z,9.70
2023-07-24T16:24:26.374Z,9.30
2023-07-24T16:26:58.086Z,6.20
2023-07-24T16:29:29.746Z,3.20
2023-07-24T16:32:01.405Z,3.00
2023-07-24T16:34:36.862Z,2.90
2023-07-24T16:37:10.490Z,2.80
2023-07-24T16:39:42.640Z,2.70
2023-07-24T16:42:14.090Z,2.70
2023-07-24T16:44:45.746Z,1.90
2023-07-24T16:47:17.494Z,2.50
2023-07-24T16:49:49.282Z,2.00
2023-07-24T16:52:20.816Z,3.40
2023-07-24T16:54:52.708Z,5.60
2023-07-24T16:57:24.858Z,2.70
2023-07-24T16:59:56.384Z,2.70
2023-07-24T17:02:28.166Z,3.20
2023-07-24T17:04:59.615Z,2.50
2023-07-24T17:07:31.070Z,2.30
2023-07-24T17:10:02.527Z,2.10
2023-07-24T17:12:34.357Z,2.50
2023-07-24T17:15:07.226Z,3.10
2023-07-24T17:17:38.876Z,2.90
2023-07-24T17:20:11.717Z,4.00
2023-07-24T17:22:43.258Z,3.90
2023-07-24T17:25:14.922Z,2.50
2023-07-24T17:27:47.505Z,2.00
2023-07-24T17:30:19.358Z,2.20
2023-07-24T17:32:51.796Z,2.70
2023-07-24T17:35:23.294Z,2.30
2023-07-24T17:37:54.778Z,2.20
2023-07-24T17:40:27.811Z,1.90
2023-07-24T17:42:59.507Z,2.30
2023-07-24T17:45:31.084Z,2.10
2023-07-24T17:48:04.887Z,1.80
2023-07-24T17:50:37.954Z,2.00
2023-07-24T17:53:09.407Z,1.80
2023-07-24T17:55:40.957Z,2.30
2023-07-24T17:58:12.422Z,2.40
2023-07-24T18:00:46.835Z,2.80
2023-07-24T18:03:18.586Z,2.90
2023-07-24T18:05:50.713Z,2.00
2023-07-24T18:08:22.192Z,3.00
2023-07-24T18:10:53.729Z,2.50
2023-07-24T18:13:25.256Z,2.20
2023-07-24T18:15:57.459Z,2.20
2023-07-24T18:18:30.535Z,2.40
2023-07-24T18:21:08.648Z,2.40
2023-07-24T18:23:41.463Z,2.10
2023-07-24T18:26:13.721Z,1.90
2023-07-24T18:28:45.474Z,2.30
2023-07-24T18:31:20.064Z,2.20
2023-07-24T18:33:52.033Z,2.60
2023-07-24T18:36:24.070Z,2.60
2023-07-24T18:38:57.005Z,2.00
2023-07-24T18:41:31.099Z,2.10
2023-07-24T18:44:03.006Z,2.30
2023-07-24T18:46:34.738Z,2.40
2023-07-24T18:49:06.908Z,2.90
2023-07-24T18:51:38.377Z,2.40
2023-07-24T18:54:10.073Z,2.50
2023-07-24T18:56:41.912Z,2.10
2023-07-24T18:59:13.495Z,2.20
2023-07-24T19:01:46.240Z,1.90
2023-07-24T19:04:18.143Z,3.10
2023-07-24T19:06:49.715Z,2.20
2023-07-24T19:09:21.193Z,2.10
2023-07-24T19:11:53.614Z,2.00
2023-07-24T19:14:27.311Z,2.00
2023-07-24T19:16:58.864Z,2.30
2023-07-24T19:19:30.509Z,2.10
2023-07-24T19:22:02.329Z,2.20
2023-07-24T19:24:34.063Z,1.90
2023-07-24T19:27:06.806Z,2.10
2023-07-24T19:29:38.278Z,2.20
2023-07-24T19:32:10.733Z,3.00
2023-07-24T19:34:44.349Z,2.60
2023-07-24T19:37:16.192Z,1.70
2023-07-24T19:39:47.645Z,2.10
2023-07-24T19:42:19.068Z,2.20
2023-07-24T19:44:50.739Z,2.20
2023-07-24T19:47:22.608Z,1.90
2023-07-24T19:49:54.322Z,1.90
2023-07-24T19:52:25.826Z,2.10
2023-07-24T19:54:57.300Z,2.10
2023-07-24T19:57:29.249Z,1.90
2023-07-24T20:00:00.782Z,1.90
2023-07-24T20:02:32.374Z,2.40
2023-07-24T20:05:04.098Z,2.20
2023-07-24T20:07:35.544Z,2.40
2023-07-24T20:10:08.331Z,2.50
2023-07-24T20:12:41.905Z,3.00
2023-07-24T20:15:17.168Z,2.00
2023-07-24T20:17:48.688Z,2.50
2023-07-24T20:20:20.924Z,2.70
2023-07-24T20:22:52.723Z,2.40
2023-07-24T20:25:24.331Z,2.30
2023-07-24T20:27:55.984Z,2.10
2023-07-24T20:30:27.544Z,2.10
2023-07-24T20:32:59.064Z,2.30
2023-07-24T20:35:33.057Z,2.40
2023-07-24T20:38:07.563Z,2.20
2023-07-24T20:40:39.042Z,2.40
2023-07-24T20:43:10.508Z,2.60
2023-07-24T20:45:42.239Z,2.40
2023-07-24T20:48:14.182Z,2.30
2023-07-24T20:50:46.803Z,2.60
2023-07-24T20:53:18.556Z,2.10
2023-07-24T20:55:50.340Z,2.40
2023-07-24T20:58:21.870Z,3.70
2023-07-24T21:00:53.405Z,2.60
2023-07-24T21:03:24.944Z,2.50
2023-07-24T21:05:56.422Z,2.10
2023-07-24T21:08:27.926Z,2.50
2023-07-24T21:10:59.368Z,2.10
2023-07-24T21:13:30.908Z,2.20
2023-07-24T21:16:02.467Z,2.00
2023-07-24T21:18:33.884Z,1.90
2023-07-24T21:21:08.138Z,2.70
2023-07-24T21:23:40.836Z,2.30
2023-07-24T21:26:12.383Z,2.60
2023-07-24T21:28:43.966Z,3.20
2023-07-24T21:31:15.891Z,2.60
2023-07-24T21:33:47.742Z,2.20
2023-07-24T21:36:19.228Z,2.40
2023-07-24T21:38:50.696Z,2.10
2023-07-24T21:41:22.275Z,2.50
2023-07-24T21:43:53.823Z,2.50
2023-07-24T21:46:25.544Z,2.50
2023-07-24T21:48:57.211Z,2.20
2023-07-24T21:51:28.990Z,2.50
2023-07-24T21:54:01.002Z,2.80
2023-07-24T21:56:32.710Z,2.20
2023-07-24T21:59:04.572Z,2.30
2023-07-24T22:01:36.189Z,2.70
2023-07-24T22:04:07.898Z,2.60
2023-07-24T22:06:39.487Z,3.20
2023-07-24T22:09:10.992Z,2.30
2023-07-24T22:11:42.472Z,2.40
2023-07-24T22:14:15.534Z,2.20
2023-07-24T22:16:47.073Z,2.30
2023-07-24T22:19:19.087Z,2.20
2023-07-24T22:21:50.838Z,2.10
2023-07-24T22:24:22.330Z,2.30
2023-07-24T22:26:53.876Z,2.00
2023-07-24T22:29:25.309Z,2.20
2023-07-24T22:31:56.842Z,2.20
2023-07-24T22:34:28.594Z,2.20
2023-07-24T22:37:00.177Z,2.40
2023-07-24T22:39:31.791Z,2.60
2023-07-24T22:42:03.702Z,2.40
2023-07-24T22:44:35.890Z,2.20
2023-07-24T22:47:08.998Z,2.40
2023-07-24T22:49:40.585Z,2.00
2023-07-24T22:52:12.366Z,2.50
2023-07-24T22:54:44.265Z,2.40
2023-07-24T22:57:15.816Z,2.40
2023-07-24T22:59:47.526Z,2.40
2023-07-24T23:02:19.030Z,2.10
2023-07-24T23:04:50.487Z,2.00
2023-07-24T23:07:22.047Z,2.30
2023-07-24T23:09:53.632Z,2.20
2023-07-24T23:12:25.266Z,2.00
2023-07-24T23:14:56.828Z,2.30
2023-07-24T23:17:28.441Z,2.40
2023-07-24T23:19:59.942Z,3.10
2023-07-24T23:22:31.452Z,2.20
2023-07-24T23:25:02.890Z,2.60
2023-07-24T23:27:34.334Z,3.20
2023-07-24T23:30:07.431Z,2.60
2023-07-24T23:32:39.595Z,3.40
2023-07-24T23:35:12.088Z,2.50
2023-07-24T23:37:43.528Z,3.00
2023-07-24T23:40:15.485Z,2.40
2023-07-24T23:42:49.653Z,2.50
2023-07-24T23:45:21.096Z,2.40
2023-07-24T23:47:52.590Z,2.60
2023-07-24T23:50:24.186Z,2.40
2023-07-24T23:52:56.837Z,2.80
2023-07-24T23:55:32.947Z,2.50
2023-07-24T23:58:04.621Z,2.40
